sensor_id;sensor_type;location;lat;lon;timestamp;P1;durP1;ratioP1;P2;durP2;ratioP2
84757;SDS011;74981;52.476;16.656;2024-03-23T00:56:01;22.80;;;12.10;;
84757;SDS011;74981;52.476;16.656;2024-03-23T01:01:03;25.50;;;13.90;;
84757;SDS011;74981;52.476;16.656;2024-03-23T01:06:06;23.40;;;13.10;;
84757;SDS011;74981;52.476;16.656;2024-03-23T01:11:08;24.80;;;12.00;;
84757;SDS011;74981;52.476;16.656;2024-03-23T01:16:10;24.20;;;11.40;;
84757;SDS011;74981;52.476;16.656;2024-03-23T01:21:13;26.30;;;14.50;;
84757;SDS011;74981;52.476;16.656;2024-03-23T01:26:15;23.90;;;14.40;;
84757;SDS011;74981;52.476;16.656;2024-03-23T01:31:17;25.20;;;13.10;;
84757;SDS011;74981;52.476;16.656;2024-03-23T01:36:19;25.60;;;13.70;;
84757;SDS011;74981;52.476;16.656;2024-03-23T01:41:23;23.60;;;13.20;;
84757;SDS011;74981;52.476;16.656;2024-03-23T01:46:26;22.10;;;12.30;;
84757;SDS011;74981;52.476;16.656;2024-03-23T01:51:28;26.70;;;15.20;;
84757;SDS011;74981;52.476;16.656;2024-03-23T01:56:32;25.20;;;13.40;;
84757;SDS011;74981;52.476;16.656;2024-03-23T02:01:35;22.80;;;12.60;;
84757;SDS011;74981;52.476;16.656;2024-03-23T02:06:37;25.40;;;15.10;;
84757;SDS011;74981;52.476;16.656;2024-03-23T02:11:40;22.80;;;13.40;;
84757;SDS011;74981;52.476;16.656;2024-03-23T02:16:42;26.90;;;13.00;;
84757;SDS011;74981;52.476;16.656;2024-03-23T02:21:45;26.30;;;14.30;;
84757;SDS011;74981;52.476;16.656;2024-03-23T02:26:47;24.80;;;13.40;;
84757;SDS011;74981;52.476;16.656;2024-03-23T02:31:49;25.30;;;13.80;;
84757;SDS011;74981;52.476;16.656;2024-03-23T02:36:52;31.00;;;14.50;;
84757;SDS011;74981;52.476;16.656;2024-03-23T02:41:54;27.80;;;14.30;;
84757;SDS011;74981;52.476;16.656;2024-03-23T02:46:56;30.00;;;15.10;;
84757;SDS011;74981;52.476;16.656;2024-03-23T02:51:58;30.40;;;15.40;;
84757;SDS011;74981;52.476;16.656;2024-03-23T02:57:01;30.80;;;15.90;;
84757;SDS011;74981;52.476;16.656;2024-03-23T03:02:03;29.10;;;14.30;;
84757;SDS011;74981;52.476;16.656;2024-03-23T03:07:06;26.50;;;12.80;;
84757;SDS011;74981;52.476;16.656;2024-03-23T03:12:09;28.70;;;15.70;;
84757;SDS011;74981;52.476;16.656;2024-03-23T03:17:11;26.80;;;15.00;;
84757;SDS011;74981;52.476;16.656;2024-03-23T03:22:13;29.30;;;14.50;;
84757;SDS011;74981;52.476;16.656;2024-03-23T03:27:16;29.20;;;14.20;;
84757;SDS011;74981;52.476;16.656;2024-03-23T03:32:18;29.40;;;15.40;;
84757;SDS011;74981;52.476;16.656;2024-03-23T03:37:20;33.60;;;15.30;;
84757;SDS011;74981;52.476;16.656;2024-03-23T03:42:22;11.90;;;5.20;;
84757;SDS011;74981;52.476;16.656;2024-03-23T03:47:25;8.00;;;3.40;;
84757;SDS011;74981;52.476;16.656;2024-03-23T03:52:27;10.40;;;5.60;;
84757;SDS011;74981;52.476;16.656;2024-03-23T03:57:29;9.20;;;3.70;;
84757;SDS011;74981;52.476;16.656;2024-03-23T04:02:32;10.80;;;4.60;;
84757;SDS011;74981;52.476;16.656;2024-03-23T04:07:34;9.90;;;4.30;;
84757;SDS011;74981;52.476;16.656;2024-03-23T04:12:36;8.80;;;3.60;;
84757;SDS011;74981;52.476;16.656;2024-03-23T04:17:39;8.80;;;2.90;;
84757;SDS011;74981;52.476;16.656;2024-03-23T04:22:41;7.10;;;2.50;;
84757;SDS011;74981;52.476;16.656;2024-03-23T04:27:44;7.90;;;3.20;;
84757;SDS011;74981;52.476;16.656;2024-03-23T04:32:46;6.80;;;3.60;;
84757;SDS011;74981;52.476;16.656;2024-03-23T04:37:48;7.30;;;2.90;;
84757;SDS011;74981;52.476;16.656;2024-03-23T04:42:50;10.60;;;3.10;;
84757;SDS011;74981;52.476;16.656;2024-03-23T04:47:52;8.90;;;3.70;;
84757;SDS011;74981;52.476;16.656;2024-03-23T04:52:55;9.60;;;3.10;;
84757;SDS011;74981;52.476;16.656;2024-03-23T04:57:57;10.80;;;3.90;;
84757;SDS011;74981;52.476;16.656;2024-03-23T05:02:59;8.30;;;3.60;;
84757;SDS011;74981;52.476;16.656;2024-03-23T05:08:02;9.00;;;3.10;;
84757;SDS011;74981;52.476;16.656;2024-03-23T05:13:05;9.40;;;2.50;;
84757;SDS011;74981;52.476;16.656;2024-03-23T05:18:07;7.50;;;3.00;;
84757;SDS011;74981;52.476;16.656;2024-03-23T05:23:09;8.50;;;2.80;;
84757;SDS011;74981;52.476;16.656;2024-03-23T05:28:11;11.20;;;4.30;;
84757;SDS011;74981;52.476;16.656;2024-03-23T05:33:14;9.50;;;3.10;;
84757;SDS011;74981;52.476;16.656;2024-03-23T05:38:16;10.30;;;3.30;;
84757;SDS011;74981;52.476;16.656;2024-03-23T05:43:18;10.90;;;2.50;;
84757;SDS011;74981;52.476;16.656;2024-03-23T05:48:21;9.00;;;2.60;;
84757;SDS011;74981;52.476;16.656;2024-03-23T05:53:23;13.90;;;2.50;;
84757;SDS011;74981;52.476;16.656;2024-03-23T05:58:26;13.50;;;2.90;;
84757;SDS011;74981;52.476;16.656;2024-03-23T06:03:28;12.00;;;3.70;;
84757;SDS011;74981;52.476;16.656;2024-03-23T06:08:31;13.00;;;2.50;;
84757;SDS011;74981;52.476;16.656;2024-03-23T06:13:33;11.10;;;3.40;;
84757;SDS011;74981;52.476;16.656;2024-03-23T06:18:35;10.70;;;3.30;;
84757;SDS011;74981;52.476;16.656;2024-03-23T06:23:37;13.90;;;2.90;;
84757;SDS011;74981;52.476;16.656;2024-03-23T06:28:40;10.60;;;3.70;;
84757;SDS011;74981;52.476;16.656;2024-03-23T06:33:42;10.70;;;3.20;;
84757;SDS011;74981;52.476;16.656;2024-03-23T06:38:45;11.10;;;2.50;;
84757;SDS011;74981;52.476;16.656;2024-03-23T06:43:47;9.40;;;3.60;;
84757;SDS011;74981;52.476;16.656;2024-03-23T06:48:49;8.90;;;3.10;;
84757;SDS011;74981;52.476;16.656;2024-03-23T06:53:52;13.80;;;4.10;;
84757;SDS011;74981;52.476;16.656;2024-03-23T06:58:54;12.90;;;2.80;;
84757;SDS011;74981;52.476;16.656;2024-03-23T07:03:56;11.50;;;2.60;;
84757;SDS011;74981;52.476;16.656;2024-03-23T07:08:58;12.60;;;3.70;;
84757;SDS011;74981;52.476;16.656;2024-03-23T07:14:00;11.50;;;3.00;;
84757;SDS011;74981;52.476;16.656;2024-03-23T07:19:03;11.20;;;3.90;;
84757;SDS011;74981;52.476;16.656;2024-03-23T07:24:06;15.60;;;4.50;;
84757;SDS011;74981;52.476;16.656;2024-03-23T07:29:09;12.90;;;4.50;;
84757;SDS011;74981;52.476;16.656;2024-03-23T07:34:12;12.90;;;3.30;;
84757;SDS011;74981;52.476;16.656;2024-03-23T07:39:14;15.40;;;4.80;;
84757;SDS011;74981;52.476;16.656;2024-03-23T07:44:16;11.90;;;3.60;;
84757;SDS011;74981;52.476;16.656;2024-03-23T07:49:18;12.30;;;4.10;;
84757;SDS011;74981;52.476;16.656;2024-03-23T07:54:21;9.50;;;2.90;;
84757;SDS011;74981;52.476;16.656;2024-03-23T07:59:23;11.60;;;3.10;;
84757;SDS011;74981;52.476;16.656;2024-03-23T08:04:26;12.60;;;3.90;;
84757;SDS011;74981;52.476;16.656;2024-03-23T08:09:29;10.10;;;4.90;;
84757;SDS011;74981;52.476;16.656;2024-03-23T08:14:31;11.70;;;3.20;;
84757;SDS011;74981;52.476;16.656;2024-03-23T08:19:33;14.60;;;4.10;;
84757;SDS011;74981;52.476;16.656;2024-03-23T08:24:35;11.20;;;2.60;;
84757;SDS011;74981;52.476;16.656;2024-03-23T08:29:38;13.00;;;2.80;;
84757;SDS011;74981;52.476;16.656;2024-03-23T08:34:40;9.30;;;3.50;;
84757;SDS011;74981;52.476;16.656;2024-03-23T08:39:43;11.80;;;3.70;;
84757;SDS011;74981;52.476;16.656;2024-03-23T08:44:46;10.40;;;4.40;;
84757;SDS011;74981;52.476;16.656;2024-03-23T08:49:48;10.10;;;3.00;;
84757;SDS011;74981;52.476;16.656;2024-03-23T08:54:50;11.80;;;3.40;;
84757;SDS011;74981;52.476;16.656;2024-03-23T08:59:52;16.90;;;4.80;;
84757;SDS011;74981;52.476;16.656;2024-03-23T09:04:55;13.60;;;4.00;;
84757;SDS011;74981;52.476;16.656;2024-03-23T09:09:57;17.50;;;4.80;;
84757;SDS011;74981;52.476;16.656;2024-03-23T09:14:59;10.30;;;3.60;;
84757;SDS011;74981;52.476;16.656;2024-03-23T09:20:02;10.90;;;3.90;;
84757;SDS011;74981;52.476;16.656;2024-03-23T09:25:05;11.60;;;3.00;;
84757;SDS011;74981;52.476;16.656;2024-03-23T09:30:09;12.00;;;4.90;;
84757;SDS011;74981;52.476;16.656;2024-03-23T09:35:12;15.50;;;3.70;;
84757;SDS011;74981;52.476;16.656;2024-03-23T09:40:15;7.80;;;3.80;;
84757;SDS011;74981;52.476;16.656;2024-03-23T09:45:19;14.00;;;3.20;;
84757;SDS011;74981;52.476;16.656;2024-03-23T09:50:23;7.10;;;2.50;;
84757;SDS011;74981;52.476;16.656;2024-03-23T09:55:25;9.60;;;3.30;;
84757;SDS011;74981;52.476;16.656;2024-03-23T10:00:28;9.40;;;3.30;;
84757;SDS011;74981;52.476;16.656;2024-03-23T10:05:30;9.40;;;3.20;;
84757;SDS011;74981;52.476;16.656;2024-03-23T10:10:33;9.30;;;3.60;;
84757;SDS011;74981;52.476;16.656;2024-03-23T10:15:36;9.80;;;2.90;;
84757;SDS011;74981;52.476;16.656;2024-03-23T10:20:40;9.20;;;3.90;;
84757;SDS011;74981;52.476;16.656;2024-03-23T10:25:42;8.50;;;2.60;;
84757;SDS011;74981;52.476;16.656;2024-03-23T10:30:44;9.10;;;3.10;;
84757;SDS011;74981;52.476;16.656;2024-03-23T10:35:46;9.30;;;3.40;;
84757;SDS011;74981;52.476;16.656;2024-03-23T10:40:49;9.30;;;2.90;;
84757;SDS011;74981;52.476;16.656;2024-03-23T10:45:52;11.00;;;3.50;;
84757;SDS011;74981;52.476;16.656;2024-03-23T10:50:54;9.20;;;3.30;;
84757;SDS011;74981;52.476;16.656;2024-03-23T10:55:58;11.60;;;3.60;;
84757;SDS011;74981;52.476;16.656;2024-03-23T11:01:00;5.80;;;3.70;;
84757;SDS011;74981;52.476;16.656;2024-03-23T11:06:05;9.90;;;4.10;;
84757;SDS011;74981;52.476;16.656;2024-03-23T11:11:14;11.00;;;4.20;;
84757;SDS011;74981;52.476;16.656;2024-03-23T11:16:22;10.40;;;4.80;;
84757;SDS011;74981;52.476;16.656;2024-03-23T11:26:55;5.80;;;2.30;;
84757;SDS011;74981;52.476;16.656;2024-03-23T11:31:57;6.30;;;4.20;;
84757;SDS011;74981;52.476;16.656;2024-03-23T11:37:03;6.40;;;3.50;;
84757;SDS011;74981;52.476;16.656;2024-03-23T11:42:06;6.20;;;2.70;;
84757;SDS011;74981;52.476;16.656;2024-03-23T11:47:08;9.50;;;3.50;;
84757;SDS011;74981;52.476;16.656;2024-03-23T11:52:11;8.30;;;3.20;;
84757;SDS011;74981;52.476;16.656;2024-03-23T11:57:14;10.40;;;3.50;;
84757;SDS011;74981;52.476;16.656;2024-03-23T12:02:17;7.30;;;2.80;;
84757;SDS011;74981;52.476;16.656;2024-03-23T12:07:20;8.90;;;3.50;;
84757;SDS011;74981;52.476;16.656;2024-03-23T12:12:23;5.30;;;2.20;;
84757;SDS011;74981;52.476;16.656;2024-03-23T12:17:26;7.50;;;3.70;;
84757;SDS011;74981;52.476;16.656;2024-03-23T12:22:28;5.10;;;2.80;;
84757;SDS011;74981;52.476;16.656;2024-03-23T12:27:30;5.20;;;2.70;;
84757;SDS011;74981;52.476;16.656;2024-03-23T12:32:32;5.30;;;3.30;;
84757;SDS011;74981;52.476;16.656;2024-03-23T12:37:35;6.00;;;2.10;;
84757;SDS011;74981;52.476;16.656;2024-03-23T12:42:37;6.60;;;2.90;;
84757;SDS011;74981;52.476;16.656;2024-03-23T12:47:39;5.90;;;4.10;;
84757;SDS011;74981;52.476;16.656;2024-03-23T12:52:42;6.30;;;2.70;;
84757;SDS011;74981;52.476;16.656;2024-03-23T12:57:45;4.00;;;2.40;;
84757;SDS011;74981;52.476;16.656;2024-03-23T13:02:47;5.50;;;3.20;;
84757;SDS011;74981;52.476;16.656;2024-03-23T13:07:49;4.60;;;3.20;;
84757;SDS011;74981;52.476;16.656;2024-03-23T13:12:52;3.10;;;2.00;;
84757;SDS011;74981;52.476;16.656;2024-03-23T13:17:54;2.40;;;1.20;;
84757;SDS011;74981;52.476;16.656;2024-03-23T13:22:57;4.40;;;1.90;;
84757;SDS011;74981;52.476;16.656;2024-03-23T13:27:59;3.50;;;2.00;;
84757;SDS011;74981;52.476;16.656;2024-03-23T13:33:01;3.50;;;2.20;;
84757;SDS011;74981;52.476;16.656;2024-03-23T13:38:04;2.80;;;1.50;;
84757;SDS011;74981;52.476;16.656;2024-03-23T13:43:06;1.60;;;0.90;;
84757;SDS011;74981;52.476;16.656;2024-03-23T13:48:08;3.00;;;2.40;;
84757;SDS011;74981;52.476;16.656;2024-03-23T13:53:11;3.90;;;2.80;;
84757;SDS011;74981;52.476;16.656;2024-03-23T13:58:13;4.90;;;2.70;;
84757;SDS011;74981;52.476;16.656;2024-03-23T14:03:16;4.00;;;3.70;;
84757;SDS011;74981;52.476;16.656;2024-03-23T14:08:18;2.70;;;2.10;;
84757;SDS011;74981;52.476;16.656;2024-03-23T14:13:20;2.40;;;1.90;;
84757;SDS011;74981;52.476;16.656;2024-03-23T14:18:23;5.80;;;3.90;;
84757;SDS011;74981;52.476;16.656;2024-03-23T14:23:26;5.40;;;4.50;;
84757;SDS011;74981;52.476;16.656;2024-03-23T14:28:29;4.30;;;2.50;;
84757;SDS011;74981;52.476;16.656;2024-03-23T14:33:31;4.40;;;2.10;;
84757;SDS011;74981;52.476;16.656;2024-03-23T14:38:33;4.70;;;3.60;;
84757;SDS011;74981;52.476;16.656;2024-03-23T14:43:36;5.10;;;3.30;;
84757;SDS011;74981;52.476;16.656;2024-03-23T14:48:38;2.40;;;1.50;;
84757;SDS011;74981;52.476;16.656;2024-03-23T14:53:44;1.90;;;1.40;;
84757;SDS011;74981;52.476;16.656;2024-03-23T14:58:51;5.00;;;3.20;;
84757;SDS011;74981;52.476;16.656;2024-03-23T15:03:54;4.70;;;1.90;;
84757;SDS011;74981;52.476;16.656;2024-03-23T15:08:56;7.00;;;3.40;;
84757;SDS011;74981;52.476;16.656;2024-03-23T15:13:58;3.80;;;2.60;;
84757;SDS011;74981;52.476;16.656;2024-03-23T15:19:01;4.10;;;1.60;;
84757;SDS011;74981;52.476;16.656;2024-03-23T15:24:04;5.40;;;4.20;;
84757;SDS011;74981;52.476;16.656;2024-03-23T15:29:07;4.80;;;3.20;;
84757;SDS011;74981;52.476;16.656;2024-03-23T15:34:09;4.30;;;2.40;;
84757;SDS011;74981;52.476;16.656;2024-03-23T15:39:12;5.70;;;2.30;;
84757;SDS011;74981;52.476;16.656;2024-03-23T15:44:14;4.80;;;2.30;;
84757;SDS011;74981;52.476;16.656;2024-03-23T15:49:16;4.40;;;2.30;;
84757;SDS011;74981;52.476;16.656;2024-03-23T15:54:18;4.40;;;1.70;;
84757;SDS011;74981;52.476;16.656;2024-03-23T15:59:21;3.10;;;1.70;;
84757;SDS011;74981;52.476;16.656;2024-03-23T16:04:23;3.90;;;2.90;;
84757;SDS011;74981;52.476;16.656;2024-03-23T16:09:26;3.90;;;2.90;;
84757;SDS011;74981;52.476;16.656;2024-03-23T16:14:28;2.90;;;1.50;;
84757;SDS011;74981;52.476;16.656;2024-03-23T16:19:31;5.20;;;4.10;;
84757;SDS011;74981;52.476;16.656;2024-03-23T16:24:34;4.20;;;1.80;;
84757;SDS011;74981;52.476;16.656;2024-03-23T16:29:36;6.10;;;3.60;;
84757;SDS011;74981;52.476;16.656;2024-03-23T16:34:39;3.70;;;2.20;;
84757;SDS011;74981;52.476;16.656;2024-03-23T16:39:41;4.60;;;3.90;;
84757;SDS011;74981;52.476;16.656;2024-03-23T16:44:43;4.80;;;4.20;;
84757;SDS011;74981;52.476;16.656;2024-03-23T16:49:45;5.80;;;4.00;;
84757;SDS011;74981;52.476;16.656;2024-03-23T16:54:48;5.60;;;3.20;;
84757;SDS011;74981;52.476;16.656;2024-03-23T16:59:50;5.90;;;4.20;;
84757;SDS011;74981;52.476;16.656;2024-03-23T17:04:52;7.80;;;3.90;;
84757;SDS011;74981;52.476;16.656;2024-03-23T17:09:56;7.10;;;3.30;;
84757;SDS011;74981;52.476;16.656;2024-03-23T17:14:58;6.90;;;3.50;;
84757;SDS011;74981;52.476;16.656;2024-03-23T17:20:05;5.50;;;2.80;;
84757;SDS011;74981;52.476;16.656;2024-03-23T17:25:08;7.10;;;3.50;;
84757;SDS011;74981;52.476;16.656;2024-03-23T17:30:13;6.70;;;5.40;;
84757;SDS011;74981;52.476;16.656;2024-03-23T17:35:15;9.10;;;5.20;;
84757;SDS011;74981;52.476;16.656;2024-03-23T17:40:18;8.60;;;5.00;;
84757;SDS011;74981;52.476;16.656;2024-03-23T17:45:20;7.00;;;4.60;;
84757;SDS011;74981;52.476;16.656;2024-03-23T17:50:23;13.50;;;4.00;;
84757;SDS011;74981;52.476;16.656;2024-03-23T17:55:25;7.00;;;3.50;;
84757;SDS011;74981;52.476;16.656;2024-03-23T18:00:28;9.30;;;4.50;;
84757;SDS011;74981;52.476;16.656;2024-03-23T18:05:33;16.60;;;7.50;;
84757;SDS011;74981;52.476;16.656;2024-03-23T18:10:36;21.30;;;10.80;;
84757;SDS011;74981;52.476;16.656;2024-03-23T18:15:39;15.80;;;6.60;;
84757;SDS011;74981;52.476;16.656;2024-03-23T18:20:41;9.00;;;6.50;;
84757;SDS011;74981;52.476;16.656;2024-03-23T18:25:50;26.00;;;10.20;;
84757;SDS011;74981;52.476;16.656;2024-03-23T18:30:56;10.30;;;4.10;;
84757;SDS011;74981;52.476;16.656;2024-03-23T18:35:58;17.90;;;9.10;;
84757;SDS011;74981;52.476;16.656;2024-03-23T18:41:01;22.70;;;11.00;;
84757;SDS011;74981;52.476;16.656;2024-03-23T18:46:03;23.00;;;11.50;;
84757;SDS011;74981;52.476;16.656;2024-03-23T18:51:06;26.90;;;15.80;;
84757;SDS011;74981;52.476;16.656;2024-03-23T18:56:09;17.10;;;10.20;;
84757;SDS011;74981;52.476;16.656;2024-03-23T19:01:12;12.20;;;5.80;;
84757;SDS011;74981;52.476;16.656;2024-03-23T19:06:16;11.10;;;7.70;;
84757;SDS011;74981;52.476;16.656;2024-03-23T19:11:19;10.20;;;5.00;;
84757;SDS011;74981;52.476;16.656;2024-03-23T19:16:22;9.90;;;5.00;;
84757;SDS011;74981;52.476;16.656;2024-03-23T19:21:24;14.10;;;6.90;;
84757;SDS011;74981;52.476;16.656;2024-03-23T19:26:27;11.20;;;6.30;;
84757;SDS011;74981;52.476;16.656;2024-03-23T19:31:29;10.40;;;5.40;;
84757;SDS011;74981;52.476;16.656;2024-03-23T19:36:31;12.20;;;7.10;;
84757;SDS011;74981;52.476;16.656;2024-03-23T19:41:34;15.50;;;7.20;;
84757;SDS011;74981;52.476;16.656;2024-03-23T19:46:36;8.30;;;5.30;;
84757;SDS011;74981;52.476;16.656;2024-03-23T19:51:38;13.30;;;6.60;;
84757;SDS011;74981;52.476;16.656;2024-03-23T19:56:41;11.30;;;5.50;;
84757;SDS011;74981;52.476;16.656;2024-03-23T20:01:45;16.10;;;9.30;;
84757;SDS011;74981;52.476;16.656;2024-03-23T20:06:47;14.70;;;8.90;;
84757;SDS011;74981;52.476;16.656;2024-03-23T20:11:50;12.40;;;6.10;;
84757;SDS011;74981;52.476;16.656;2024-03-23T20:16:52;13.30;;;6.80;;
84757;SDS011;74981;52.476;16.656;2024-03-23T20:21:54;14.80;;;6.10;;
84757;SDS011;74981;52.476;16.656;2024-03-23T20:26:57;11.40;;;5.70;;
84757;SDS011;74981;52.476;16.656;2024-03-23T20:31:59;16.10;;;8.00;;
84757;SDS011;74981;52.476;16.656;2024-03-23T20:37:01;14.00;;;6.60;;
84757;SDS011;74981;52.476;16.656;2024-03-23T20:42:04;16.30;;;7.10;;
84757;SDS011;74981;52.476;16.656;2024-03-23T20:47:07;13.70;;;7.60;;
84757;SDS011;74981;52.476;16.656;2024-03-23T20:52:09;12.90;;;6.80;;
84757;SDS011;74981;52.476;16.656;2024-03-23T20:57:11;13.50;;;5.80;;
84757;SDS011;74981;52.476;16.656;2024-03-23T21:02:14;22.20;;;8.50;;
84757;SDS011;74981;52.476;16.656;2024-03-23T21:07:16;16.70;;;7.10;;
84757;SDS011;74981;52.476;16.656;2024-03-23T21:12:18;14.90;;;6.90;;
84757;SDS011;74981;52.476;16.656;2024-03-23T21:17:20;14.90;;;5.60;;
84757;SDS011;74981;52.476;16.656;2024-03-23T21:22:23;16.50;;;6.90;;
84757;SDS011;74981;52.476;16.656;2024-03-23T21:27:25;11.80;;;5.80;;
84757;SDS011;74981;52.476;16.656;2024-03-23T21:32:27;12.90;;;7.00;;
84757;SDS011;74981;52.476;16.656;2024-03-23T21:37:29;14.80;;;7.60;;
84757;SDS011;74981;52.476;16.656;2024-03-23T21:42:32;17.50;;;9.60;;
84757;SDS011;74981;52.476;16.656;2024-03-23T21:47:34;13.10;;;7.30;;
84757;SDS011;74981;52.476;16.656;2024-03-23T21:52:36;15.60;;;9.00;;
84757;SDS011;74981;52.476;16.656;2024-03-23T21:57:38;19.60;;;7.60;;
84757;SDS011;74981;52.476;16.656;2024-03-23T22:02:41;19.10;;;7.90;;
84757;SDS011;74981;52.476;16.656;2024-03-23T22:07:45;15.70;;;8.80;;
84757;SDS011;74981;52.476;16.656;2024-03-23T22:12:47;14.80;;;8.00;;
84757;SDS011;74981;52.476;16.656;2024-03-23T22:17:49;16.00;;;7.40;;
84757;SDS011;74981;52.476;16.656;2024-03-23T22:22:52;15.10;;;7.80;;
84757;SDS011;74981;52.476;16.656;2024-03-23T22:27:54;17.30;;;7.40;;
84757;SDS011;74981;52.476;16.656;2024-03-23T22:32:56;14.60;;;7.90;;
84757;SDS011;74981;52.476;16.656;2024-03-23T22:37:58;13.90;;;7.90;;
84757;SDS011;74981;52.476;16.656;2024-03-23T22:43:01;16.10;;;8.90;;
84757;SDS011;74981;52.476;16.656;2024-03-23T22:48:04;11.20;;;8.00;;
84757;SDS011;74981;52.476;16.656;2024-03-23T22:53:07;13.90;;;7.80;;
84757;SDS011;74981;52.476;16.656;2024-03-23T22:58:09;13.40;;;8.00;;
84757;SDS011;74981;52.476;16.656;2024-03-23T23:03:12;13.50;;;6.50;;
84757;SDS011;74981;52.476;16.656;2024-03-23T23:08:15;13.10;;;6.30;;
84757;SDS011;74981;52.476;16.656;2024-03-23T23:13:17;10.70;;;4.90;;
84757;SDS011;74981;52.476;16.656;2024-03-23T23:18:20;13.80;;;6.20;;
84757;SDS011;74981;52.476;16.656;2024-03-23T23:23:22;10.50;;;5.90;;
84757;SDS011;74981;52.476;16.656;2024-03-23T23:28:25;12.20;;;6.90;;
84757;SDS011;74981;52.476;16.656;2024-03-23T23:33:27;14.40;;;7.40;;
84757;SDS011;74981;52.476;16.656;2024-03-23T23:38:30;9.30;;;4.30;;
84757;SDS011;74981;52.476;16.656;2024-03-23T23:43:32;10.40;;;5.80;;
84757;SDS011;74981;52.476;16.656;2024-03-23T23:48:35;11.50;;;6.90;;
84757;SDS011;74981;52.476;16.656;2024-03-23T23:53:37;11.30;;;5.60;;
84757;SDS011;74981;52.476;16.656;2024-03-23T23:58:39;11.90;;;4.40;;
